CheckWX is a tool to help pilots better visualize weather data.  It is not intended as a substitute for an official pre-flight weather briefing.

18:24:27 UTC

PTRO METAR
Babelthuap / Koror Airport
Babelthuap Island, Palau
Current

2 hours ago

PTRO 281650Z 01003KT 14SM SCT015 BKN290 25/24 A2989
Observed
May-28 @ 16:50 UTC
Wind
  • 010° at 3 KTS
Visibility
22531 meters
Flight Rules
VFR
Cloud Levels
  • Scattered at 1,500' AGL
  • Broken at 29,000' AGL
Temperature
25°C / 77°F
Dewpoint
24°C / 75°F
Humidity
94%
Altimeter
29.89" Hg
Pressure
1012.22 hPa
Previous

3 hours ago

PTRO 281550Z 00000KT 14SM SCT016 BKN290 26/24 A2991
Observed
May-28 @ 15:50 UTC
Visibility
22531 meters
Flight Rules
VFR
Cloud Levels
  • Scattered at 1,600' AGL
  • Broken at 29,000' AGL
Temperature
26°C / 79°F
Dewpoint
24°C / 75°F
Humidity
89%
Altimeter
29.91" Hg
Pressure
1012.92 hPa
Previous

4 hours ago

PTRO 281450Z 00000KT 14SM SCT016 BKN110 BKN290 26/24 A2993
Observed
May-28 @ 14:50 UTC
Visibility
22531 meters
Flight Rules
VFR
Cloud Levels
  • Scattered at 1,600' AGL
  • Broken at 11,000' AGL
  • Broken at 29,000' AGL
Temperature
26°C / 79°F
Dewpoint
24°C / 75°F
Humidity
89%
Altimeter
29.93" Hg
Pressure
1013.52 hPa